KABR/ABR METAR and TAF weather

Enter ICAO airport designator
Station Type Date Time Source
KABR METAR 2018/07/21 12:53 UTC NOAA

KABR 211253Z AUTO 34005KT 7SM OVC007 18/17 A3011 RMK AO2 SLP189 T01780167


Station Type Date Time Source
KABR Decoded METAR 2018/07/21 12:53 UTC NOAA

ABERDEEN REGIONAL AIRPORT, SD, United States (KABR) 45-27N 098-25W 400M
Jul 21, 2018 - 08:53 AM EDT / 2018.07.21 1253 UTC
Wind: from the NNW (340 degrees) at 6 MPH (5 KT):0
Visibility: 7 mile(s):0
Sky conditions: overcast
Temperature: 64.0 F (17.8 C)
Dew Point: 62.1 F (16.7 C)
Relative Humidity: 93%
Pressure (altimeter): 30.11 in. Hg (1019 hPa)
ob: KABR 211253Z AUTO 34005KT 7SM OVC007 18/17 A3011 RMK AO2 SLP189 T01780167
cycle: 13

Station Type Date Time Source
KABR TAF 2018/07/21 13:45 UTC NOAA

TAF
AMD KABR 211242Z 2113/2212 34006KT P6SM BKN007
FM211500 03005KT P6SM SCT010 BKN060
FM212000 06008KT P6SM FEW200


Example: see airport list